Time;durP1;ratioP1;P1;durP2;ratioP2;P2;SDS_P1;SDS_P2;PMS_P1;PMS_P2;Temp;Humidity;BMP_temperature;BMP_pressure;BME280_temperature;BME280_humidity;BME280_pressure;Samples;Min_cycle;Max_cycle;Signal;HPM_P1;HPM_P2
2022/07/01 00:00:55;;;;;;;5.72;1.23;;;16.10;99.90;;;;;;5074359;28;20043;-74
2022/07/01 00:03:21;;;;;;;6.47;1.30;;;16.10;99.90;;;;;;5093676;28;20043;-73
2022/07/01 00:05:47;;;;;;;3.25;1.30;;;16.10;99.90;;;;;;5084309;28;20044;-73
2022/07/01 00:08:12;;;;;;;4.53;1.13;;;16.20;99.90;;;;;;5080207;28;20040;-73
2022/07/01 00:10:38;;;;;;;4.65;1.30;;;16.20;99.90;;;;;;5090893;28;20039;-74
2022/07/01 00:13:06;;;;;;;2.35;1.25;;;16.20;99.90;;;;;;5074918;28;20036;-73
2022/07/01 00:15:32;;;;;;;5.88;1.35;;;16.20;99.90;;;;;;5073675;28;20070;-73
2022/07/01 00:17:57;;;;;;;4.63;1.15;;;16.20;99.90;;;;;;5074959;28;20478;-73
2022/07/01 00:20:23;;;;;;;3.78;1.25;;;16.30;99.90;;;;;;5097754;28;20039;-73
2022/07/01 00:22:48;;;;;;;4.65;1.20;;;16.30;99.90;;;;;;5086379;28;20062;-73
2022/07/01 00:25:14;;;;;;;2.70;1.10;;;16.20;99.90;;;;;;5069874;28;20055;-73
2022/07/01 00:27:41;;;;;;;4.50;1.10;;;16.20;99.90;;;;;;5092827;28;20051;-73
2022/07/01 00:30:08;;;;;;;2.20;1.27;;;16.30;99.90;;;;;;5093079;28;20123;-73
2022/07/01 00:32:34;;;;;;;3.95;1.20;;;16.30;99.90;;;;;;5092416;28;20040;-73
2022/07/01 00:35:00;;;;;;;4.10;1.27;;;16.30;99.90;;;;;;5092971;28;20046;-74
2022/07/01 00:37:25;;;;;;;4.75;1.15;;;16.30;99.90;;;;;;5092527;28;20783;-74
2022/07/01 00:39:51;;;;;;;3.67;1.20;;;16.30;99.90;;;;;;5071841;28;20043;-74
2022/07/01 00:42:16;;;;;;;3.08;1.30;;;16.40;99.90;;;;;;5068510;28;20041;-74
2022/07/01 00:44:42;;;;;;;4.35;1.25;;;16.30;99.90;;;;;;5073734;28;20047;-73
2022/07/01 00:47:12;;;;;;;3.58;1.30;;;16.40;99.90;;;;;;5070766;28;20036;-74
2022/07/01 00:49:39;;;;;;;3.15;1.30;;;16.40;99.90;;;;;;5085785;28;20115;-74
2022/07/01 00:52:07;;;;;;;4.50;1.20;;;16.30;99.90;;;;;;5082003;28;20390;-74
2022/07/01 00:54:35;;;;;;;2.28;1.20;;;16.30;99.90;;;;;;5058403;28;20051;-74
2022/07/01 00:57:06;;;;;;;3.53;1.00;;;16.30;99.90;;;;;;5090150;28;20043;-73
2022/07/01 00:59:31;;;;;;;2.63;1.10;;;16.30;99.90;;;;;;5091004;28;20486;-73
2022/07/01 01:01:57;;;;;;;2.17;0.95;;;16.30;99.90;;;;;;5072493;28;20036;-73
2022/07/01 01:04:23;;;;;;;3.42;1.00;;;16.30;99.90;;;;;;5075313;28;20489;-74
2022/07/01 01:06:49;;;;;;;2.97;0.98;;;16.30;99.90;;;;;;5052447;28;20123;-74
2022/07/01 01:09:15;;;;;;;1.58;1.10;;;16.20;99.90;;;;;;5072083;28;20126;-73
2022/07/01 01:11:41;;;;;;;1.92;0.98;;;16.20;99.90;;;;;;5071623;28;20089;-74
2022/07/01 01:14:06;;;;;;;1.33;0.68;;;16.20;99.90;;;;;;5090605;28;20071;-73
2022/07/01 01:16:33;;;;;;;1.40;1.10;;;16.10;99.90;;;;;;5070869;28;20075;-73
2022/07/01 01:18:59;;;;;;;1.77;0.82;;;16.20;99.90;;;;;;5087715;28;20103;-73
2022/07/01 01:21:25;;;;;;;3.67;0.90;;;16.20;99.90;;;;;;5079561;28;20132;-74
2022/07/01 01:23:51;;;;;;;1.30;0.80;;;16.20;99.90;;;;;;5073187;28;20095;-74
2022/07/01 01:26:18;;;;;;;1.27;0.60;;;16.00;99.90;;;;;;5089346;28;20036;-74
2022/07/01 01:28:44;;;;;;;2.80;0.68;;;16.00;99.90;;;;;;5091904;28;20040;-73
2022/07/01 01:31:10;;;;;;;1.80;0.90;;;15.90;99.90;;;;;;5073502;28;20040;-74
2022/07/01 01:33:37;;;;;;;2.30;0.70;;;15.90;99.90;;;;;;5091572;28;20040;-73
2022/07/01 01:36:02;;;;;;;5.05;1.00;;;16.00;99.90;;;;;;5054732;28;20049;-74
2022/07/01 01:38:28;;;;;;;1.95;0.90;;;16.00;99.90;;;;;;5088180;28;20370;-73
2022/07/01 01:40:55;;;;;;;2.00;1.10;;;16.00;99.90;;;;;;5089657;28;20049;-74
2022/07/01 01:43:20;;;;;;;1.00;0.75;;;16.00;99.90;;;;;;5073591;28;20044;-73
2022/07/01 01:45:46;;;;;;;2.75;1.00;;;16.00;99.90;;;;;;5094892;28;20083;-73
2022/07/01 01:48:12;;;;;;;1.10;0.75;;;16.00;99.90;;;;;;5089908;28;20059;-73
2022/07/01 01:50:37;;;;;;;1.85;0.90;;;16.00;99.90;;;;;;5089956;28;20385;-73
2022/07/01 01:53:03;;;;;;;1.75;0.70;;;16.00;99.90;;;;;;5073435;28;20051;-73
2022/07/01 01:55:28;;;;;;;2.33;1.08;;;16.00;99.90;;;;;;5060778;28;20044;-73
2022/07/01 01:57:54;;;;;;;1.48;1.05;;;16.00;99.90;;;;;;5063584;28;20109;-73
2022/07/01 02:00:19;;;;;;;1.77;0.80;;;16.00;99.90;;;;;;5090733;28;20047;-73
2022/07/01 02:02:45;;;;;;;1.05;0.80;;;15.90;99.90;;;;;;5091675;28;20036;-73
2022/07/01 02:05:12;;;;;;;1.30;0.90;;;15.90;99.90;;;;;;5073009;28;20123;-73
2022/07/01 02:07:39;;;;;;;1.50;0.80;;;15.90;99.90;;;;;;5072652;28;20453;-74
2022/07/01 02:10:06;;;;;;;3.03;1.08;;;15.80;99.90;;;;;;5070597;28;20055;-74
2022/07/01 02:12:32;;;;;;;1.00;0.90;;;15.80;99.90;;;;;;5071105;28;20097;-74
2022/07/01 02:14:57;;;;;;;1.65;1.10;;;15.80;99.90;;;;;;5072867;28;20060;-74
2022/07/01 02:17:24;;;;;;;1.83;0.82;;;15.80;99.90;;;;;;5075766;28;20478;-73
2022/07/01 02:19:50;;;;;;;1.30;0.85;;;15.80;99.90;;;;;;5073081;28;20050;-74
2022/07/01 02:22:15;;;;;;;1.70;0.90;;;15.80;99.90;;;;;;5095011;28;20039;-73
2022/07/01 02:24:41;;;;;;;1.83;0.90;;;15.70;99.90;;;;;;5093822;28;20048;-74
2022/07/01 02:27:06;;;;;;;1.20;0.90;;;15.70;99.90;;;;;;5072060;28;20040;-74
2022/07/01 02:29:32;;;;;;;3.80;1.00;;;15.80;99.90;;;;;;5076879;28;20040;-73
2022/07/01 02:31:57;;;;;;;2.92;1.30;;;15.70;99.90;;;;;;5094655;28;20109;-73
2022/07/01 02:34:23;;;;;;;2.20;1.00;;;15.80;99.90;;;;;;5088589;28;20062;-74
2022/07/01 02:36:49;;;;;;;2.55;1.13;;;15.70;99.90;;;;;;5092983;28;20093;-74
2022/07/01 02:39:15;;;;;;;2.35;0.98;;;15.70;99.90;;;;;;5091594;28;20044;-74
2022/07/01 02:44:24;;;;;;;2.00;1.00;;;15.70;99.90;;;;;;5092871;28;20040;-74
2022/07/01 02:46:50;;;;;;;2.92;1.20;;;15.70;99.90;;;;;;5059031;28;20062;-73
2022/07/01 02:49:16;;;;;;;2.33;1.30;;;15.80;99.90;;;;;;5093002;28;20497;-74
2022/07/01 02:51:41;;;;;;;1.38;1.10;;;15.70;99.90;;;;;;5075560;28;20096;-74
2022/07/01 02:54:07;;;;;;;1.90;1.40;;;15.70;99.90;;;;;;5099810;28;20042;-74
2022/07/01 02:56:32;;;;;;;2.85;1.50;;;15.70;99.90;;;;;;5094754;28;20052;-74
2022/07/01 02:58:58;;;;;;;3.00;1.50;;;15.70;99.90;;;;;;5093988;28;20081;-73
2022/07/01 03:01:24;;;;;;;3.13;1.63;;;15.60;99.90;;;;;;5114992;28;20389;-74
2022/07/01 03:03:50;;;;;;;1.88;1.55;;;15.60;99.90;;;;;;5095327;28;20393;-73
2022/07/01 03:06:15;;;;;;;2.50;1.63;;;15.60;99.90;;;;;;5097548;28;20093;-74
2022/07/01 03:08:41;;;;;;;7.40;1.73;;;15.60;99.90;;;;;;5093268;28;20032;-74
2022/07/01 03:11:06;;;;;;;2.47;1.42;;;15.60;99.90;;;;;;5088857;28;20475;-74
2022/07/01 03:13:32;;;;;;;3.10;1.90;;;15.50;99.90;;;;;;5091249;28;20586;-73
2022/07/01 03:15:58;;;;;;;1.95;1.63;;;15.50;99.90;;;;;;5077204;28;20618;-73
2022/07/01 03:18:23;;;;;;;2.60;2.15;;;15.50;99.90;;;;;;5094293;28;20032;-73
2022/07/01 03:20:51;;;;;;;3.78;2.05;;;15.50;99.90;;;;;;5112018;28;20036;-73
2022/07/01 03:23:16;;;;;;;2.20;2.00;;;15.40;99.90;;;;;;5094569;28;20438;-74
2022/07/01 03:25:42;;;;;;;1.88;1.77;;;15.40;99.90;;;;;;5110902;28;20069;-74
2022/07/01 03:28:08;;;;;;;3.55;2.15;;;15.40;99.90;;;;;;5112938;28;20089;-74
2022/07/01 03:30:34;;;;;;;2.33;1.92;;;15.40;99.90;;;;;;5094707;28;20397;-74
2022/07/01 03:32:59;;;;;;;2.60;2.40;;;15.40;99.90;;;;;;5107390;28;20067;-74
2022/07/01 03:35:40;;;;;;;4.03;2.35;;;15.40;99.90;;;;;;5112505;28;20135;-74
2022/07/01 03:38:07;;;;;;;3.17;2.63;;;15.40;99.90;;;;;;5111057;28;20028;-74
2022/07/01 03:40:33;;;;;;;3.22;2.80;;;15.50;99.90;;;;;;5110449;28;20493;-74
2022/07/01 03:42:58;;;;;;;4.65;3.20;;;15.50;99.90;;;;;;5075951;28;20042;-73
2022/07/01 03:45:24;;;;;;;5.00;3.03;;;15.50;99.90;;;;;;5095330;28;20596;-73
2022/07/01 03:47:51;;;;;;;5.43;2.90;;;15.50;99.90;;;;;;5104867;28;20512;-74
2022/07/01 03:50:17;;;;;;;3.92;2.90;;;15.50;99.90;;;;;;5093766;28;20075;-72
2022/07/01 03:52:43;;;;;;;10.70;3.03;;;15.50;99.90;;;;;;5093833;28;20064;-74
2022/07/01 03:55:09;;;;;;;4.95;2.88;;;15.50;99.90;;;;;;5094568;28;20859;-73
2022/07/01 03:57:35;;;;;;;5.30;3.10;;;15.50;99.90;;;;;;5113987;28;20051;-73
2022/07/01 04:00:01;;;;;;;3.47;3.17;;;15.60;99.90;;;;;;5095441;28;20043;-73
2022/07/01 04:02:27;;;;;;;6.20;3.20;;;15.50;99.90;;;;;;5086440;28;20494;-74
2022/07/01 04:04:52;;;;;;;5.28;3.03;;;15.50;99.90;;;;;;5101158;28;20035;-74
2022/07/01 04:07:18;;;;;;;3.70;3.40;;;15.60;99.90;;;;;;5095217;28;20161;-74
2022/07/01 04:09:43;;;;;;;7.05;4.20;;;15.60;99.90;;;;;;5091901;22;20064;-67
2022/07/01 04:12:12;;;;;;;6.80;4.32;;;15.60;99.90;;;;;;5054726;28;20059;-68
2022/07/01 04:14:38;;;;;;;7.63;5.18;;;15.60;99.90;;;;;;5033489;28;20040;-68
2022/07/01 04:17:04;;;;;;;7.80;5.53;;;15.60;99.90;;;;;;5053693;28;20045;-67
2022/07/01 04:19:30;;;;;;;7.07;5.40;;;15.60;99.90;;;;;;5053660;28;20489;-68
2022/07/01 04:24:39;;;;;;;7.45;6.65;;;15.60;99.90;;;;;;5054765;28;20048;-68
2022/07/01 04:27:05;;;;;;;8.18;7.35;;;15.60;99.90;;;;;;5037760;28;20040;-68
2022/07/01 04:29:30;;;;;;;8.57;7.78;;;15.60;99.90;;;;;;5051894;28;20470;-68
2022/07/01 04:31:57;;;;;;;9.75;8.57;;;15.60;99.90;;;;;;5071587;28;20048;-67
2022/07/01 04:34:23;;;;;;;10.23;9.18;;;15.70;99.90;;;;;;5053596;28;20425;-68
2022/07/01 04:36:49;;;;;;;10.25;9.23;;;15.60;99.90;;;;;;5054800;28;20040;-68
2022/07/01 04:39:14;;;;;;;13.50;11.18;;;15.60;99.90;;;;;;5081867;28;20040;-67
2022/07/01 04:44:24;;;;;;;14.80;12.00;;;15.60;99.90;;;;;;5050830;28;20048;-68
2022/07/01 04:46:50;;;;;;;13.35;11.95;;;15.70;99.90;;;;;;5052004;28;20041;-68
2022/07/01 04:49:15;;;;;;;15.63;13.15;;;15.70;99.90;;;;;;5051955;28;20047;-68
2022/07/01 04:51:41;;;;;;;16.10;13.35;;;15.70;99.90;;;;;;5052130;28;20044;-68
2022/07/01 04:54:08;;;;;;;15.82;13.60;;;15.80;99.90;;;;;;5053347;28;20040;-68
2022/07/01 04:56:35;;;;;;;15.43;13.82;;;15.80;99.90;;;;;;5048696;28;20122;-68
2022/07/01 04:59:01;;;;;;;16.38;14.88;;;15.80;99.90;;;;;;5036934;28;20047;-68
2022/07/01 05:01:28;;;;;;;15.95;14.35;;;15.80;99.90;;;;;;5069546;28;20037;-68
2022/07/01 05:03:54;;;;;;;17.65;15.73;;;15.80;99.90;;;;;;5034632;28;20044;-68
2022/07/01 05:06:19;;;;;;;18.85;16.95;;;15.90;99.90;;;;;;5053358;28;20601;-68
2022/07/01 05:08:45;;;;;;;19.80;17.80;;;15.90;99.90;;;;;;5060446;28;20139;-68
2022/07/01 05:11:11;;;;;;;22.52;19.70;;;15.80;99.90;;;;;;5073434;28;20401;-68
2022/07/01 05:13:36;;;;;;;22.15;18.92;;;15.90;99.90;;;;;;5090641;28;20052;-68
2022/07/01 05:16:03;;;;;;;21.90;19.67;;;15.90;99.90;;;;;;5090390;28;20035;-68
2022/07/01 05:23:58;;;;;;;24.65;21.08;;;15.90;99.90;;;;;;5099549;28;20040;-69
2022/07/01 05:26:25;;;;;;;24.45;22.02;;;15.90;99.90;;;;;;5082401;28;20040;-68
2022/07/01 05:28:52;;;;;;;24.25;21.63;;;15.90;99.90;;;;;;5087321;28;20059;-69
2022/07/01 05:31:18;;;;;;;24.85;22.38;;;16.00;99.90;;;;;;5091830;28;20114;-68
2022/07/01 05:33:43;;;;;;;25.50;21.58;;;16.00;99.90;;;;;;5088687;28;20119;-68
2022/07/01 05:36:10;;;;;;;25.60;22.92;;;16.00;99.90;;;;;;5085894;28;20048;-68
2022/07/01 05:38:35;;;;;;;24.17;21.58;;;16.10;99.90;;;;;;5086219;28;20055;-68
2022/07/01 05:41:01;;;;;;;32.80;23.85;;;16.10;99.90;;;;;;5074852;28;20028;-68
2022/07/01 05:43:27;;;;;;;24.80;22.33;;;16.10;99.90;;;;;;5085259;28;20044;-68
2022/07/01 05:45:52;;;;;;;24.63;22.13;;;16.20;99.90;;;;;;5089752;28;20044;-68
2022/07/01 05:48:18;;;;;;;25.70;23.10;;;16.20;99.90;;;;;;5078291;28;20127;-68
2022/07/01 05:50:44;;;;;;;26.83;23.83;;;16.20;99.90;;;;;;5087384;28;20044;-69
2022/07/01 05:53:09;;;;;;;25.20;22.65;;;16.30;99.90;;;;;;5085064;28;20036;-69
2022/07/01 05:55:35;;;;;;;27.52;24.45;;;16.40;99.90;;;;;;5088857;28;20038;-69
2022/07/01 05:58:01;;;;;;;26.65;23.90;;;16.50;99.90;;;;;;5089862;28;20119;-69
2022/07/01 06:00:27;;;;;;;25.95;23.33;;;16.50;99.90;;;;;;5068448;28;20036;-69
2022/07/01 06:02:53;;;;;;;26.73;24.00;;;16.50;99.90;;;;;;5064860;28;20039;-69
2022/07/01 06:05:18;;;;;;;27.95;25.23;;;16.60;99.90;;;;;;5084274;28;20085;-68
2022/07/01 06:07:44;;;;;;;27.90;24.90;;;16.60;99.90;;;;;;5085932;28;21657;-68
2022/07/01 06:10:10;;;;;;;28.20;25.08;;;16.70;99.90;;;;;;5084813;28;20355;-68
2022/07/01 06:12:39;;;;;;;27.70;24.90;;;16.70;99.90;;;;;;5089819;28;20063;-68
2022/07/01 06:15:07;;;;;;;28.23;25.33;;;16.90;99.90;;;;;;5086546;28;20028;-69
2022/07/01 06:17:34;;;;;;;23.92;21.52;;;16.90;99.90;;;;;;5090062;28;20119;-68
2022/07/01 06:19:59;;;;;;;29.65;26.17;;;17.00;99.90;;;;;;5123852;28;20047;-68
2022/07/01 06:22:25;;;;;;;28.80;26.10;;;17.10;99.90;;;;;;5089493;28;20242;-68
2022/07/01 06:24:50;;;;;;;25.90;23.40;;;17.10;99.90;;;;;;5085614;28;20044;-68
2022/07/01 06:27:16;;;;;;;28.63;25.67;;;17.00;99.90;;;;;;5087971;28;20079;-68
2022/07/01 06:29:41;;;;;;;26.15;23.65;;;17.10;99.90;;;;;;5089492;28;20040;-68
2022/07/01 06:32:10;;;;;;;26.90;24.23;;;17.10;99.90;;;;;;5089970;28;20153;-68
2022/07/01 06:34:35;;;;;;;27.02;24.35;;;17.20;99.90;;;;;;5089934;28;20055;-68
2022/07/01 06:37:01;;;;;;;25.23;22.90;;;17.20;99.90;;;;;;5123619;28;20036;-68
2022/07/01 06:39:27;;;;;;;25.70;23.10;;;17.30;99.90;;;;;;5065922;28;20420;-68
2022/07/01 06:41:53;;;;;;;26.88;24.20;;;17.30;99.90;;;;;;5072422;28;20041;-69
2022/07/01 06:44:19;;;;;;;24.60;22.08;;;17.30;99.90;;;;;;5087116;28;20036;-68
2022/07/01 06:46:44;;;;;;;27.73;24.88;;;17.30;99.90;;;;;;5088953;28;20366;-68
2022/07/01 06:49:10;;;;;;;24.20;22.00;;;17.40;99.90;;;;;;5089378;28;20079;-68
2022/07/01 06:51:36;;;;;;;24.92;22.50;;;17.40;99.90;;;;;;5086598;28;20047;-68
2022/07/01 06:54:02;;;;;;;25.77;23.48;;;17.50;99.90;;;;;;5088385;28;20040;-68
2022/07/01 06:56:27;;;;;;;24.65;22.27;;;17.60;99.90;;;;;;5072495;28;20032;-68
2022/07/01 06:58:53;;;;;;;24.70;22.48;;;17.60;99.90;;;;;;5092178;28;20044;-68
2022/07/01 07:01:18;;;;;;;23.67;21.48;;;17.60;99.90;;;;;;5088614;28;20035;-68
2022/07/01 07:03:44;;;;;;;25.45;23.05;;;17.40;99.90;;;;;;5087654;28;20041;-68
2022/07/01 07:06:10;;;;;;;23.45;21.17;;;17.40;99.90;;;;;;5090507;28;20047;-68
2022/07/01 07:08:35;;;;;;;23.48;21.35;;;17.40;99.90;;;;;;5068482;28;20135;-68
2022/07/01 07:11:02;;;;;;;24.75;22.30;;;17.40;99.90;;;;;;5046907;28;20128;-67
2022/07/01 07:13:28;;;;;;;24.85;22.65;;;17.50;99.90;;;;;;5049172;28;20394;-67
2022/07/01 07:15:54;;;;;;;24.95;22.65;;;17.60;99.90;;;;;;5049365;28;20036;-67
2022/07/01 07:18:20;;;;;;;25.02;22.83;;;17.60;99.90;;;;;;5050222;28;20041;-68
2022/07/01 07:20:47;;;;;;;24.85;22.65;;;17.50;99.90;;;;;;5068991;28;20032;-67
2022/07/01 07:23:13;;;;;;;26.08;23.50;;;17.50;99.90;;;;;;5073024;28;20044;-67
2022/07/01 07:25:39;;;;;;;24.48;22.17;;;17.50;99.90;;;;;;5055082;28;20487;-67
2022/07/01 07:28:04;;;;;;;23.50;21.50;;;17.60;99.90;;;;;;5087360;28;20044;-67
2022/07/01 07:30:30;;;;;;;24.05;21.80;;;17.60;99.90;;;;;;5048528;28;20110;-67
2022/07/01 07:32:55;;;;;;;24.98;22.52;;;17.60;99.90;;;;;;5048292;28;20040;-67
2022/07/01 07:35:21;;;;;;;23.88;21.77;;;17.70;99.90;;;;;;5035650;28;20045;-68
2022/07/01 07:37:47;;;;;;;23.83;21.65;;;17.50;99.90;;;;;;5023149;28;20052;-68
2022/07/01 07:40:17;;;;;;;24.00;21.85;;;17.60;99.90;;;;;;5049208;28;20062;-68
2022/07/01 07:42:45;;;;;;;24.40;22.02;;;17.60;99.90;;;;;;5077065;28;20049;-68
2022/07/01 07:45:11;;;;;;;23.50;21.27;;;17.80;99.90;;;;;;5048899;28;20089;-68
2022/07/01 07:47:38;;;;;;;22.77;20.73;;;17.80;99.90;;;;;;5049524;28;20044;-68
2022/07/01 07:50:04;;;;;;;21.95;19.83;;;18.00;99.90;;;;;;5052535;28;20091;-68
2022/07/01 07:52:31;;;;;;;22.30;20.40;;;18.10;99.90;;;;;;5041907;28;20086;-68
2022/07/01 07:54:56;;;;;;;22.30;20.40;;;18.20;99.90;;;;;;5054252;28;20451;-68
2022/07/01 07:57:22;;;;;;;21.05;19.23;;;18.40;99.90;;;;;;5050325;28;20044;-68
2022/07/01 07:59:47;;;;;;;19.80;18.10;;;18.70;99.90;;;;;;5038669;28;20041;-68
2022/07/01 08:02:13;;;;;;;20.55;18.65;;;18.90;99.90;;;;;;5071052;28;20064;-68
2022/07/01 08:04:39;;;;;;;19.85;17.60;;;19.20;99.90;;;;;;5050407;28;20037;-68
2022/07/01 08:07:04;;;;;;;18.88;17.13;;;19.40;99.90;;;;;;5048010;28;20029;-68
2022/07/01 08:09:34;;;;;;;19.63;17.40;;;19.40;99.90;;;;;;5071560;28;20047;-68
2022/07/01 08:12:00;;;;;;;18.48;16.90;;;19.20;99.90;;;;;;5057836;28;20813;-68
2022/07/01 08:14:26;;;;;;;17.17;15.73;;;19.00;99.90;;;;;;5080195;28;20097;-68
2022/07/01 08:16:51;;;;;;;17.58;15.85;;;18.90;99.90;;;;;;5072300;28;20036;-68
2022/07/01 08:19:17;;;;;;;16.38;14.88;;;19.10;99.90;;;;;;5072637;28;20032;-68
2022/07/01 08:21:42;;;;;;;17.20;15.65;;;19.20;99.90;;;;;;5083556;28;20048;-68
2022/07/01 08:24:08;;;;;;;16.90;15.40;;;19.40;99.90;;;;;;5084644;28;20078;-68
2022/07/01 08:26:34;;;;;;;16.40;14.82;;;19.40;99.90;;;;;;5082422;28;20051;-68
2022/07/01 08:28:59;;;;;;;16.85;15.45;;;19.40;99.90;;;;;;5080347;28;20040;-68
2022/07/01 08:31:25;;;;;;;15.27;13.57;;;19.40;99.90;;;;;;5079313;28;20485;-68
2022/07/01 08:33:50;;;;;;;14.68;13.23;;;19.60;99.90;;;;;;5088643;28;20552;-68
2022/07/01 08:36:16;;;;;;;13.93;12.57;;;19.70;99.90;;;;;;5070019;28;20401;-68
2022/07/01 08:38:41;;;;;;;13.60;12.30;;;19.80;99.90;;;;;;5074615;28;20040;-68
2022/07/01 08:41:07;;;;;;;12.93;11.75;;;20.00;99.90;;;;;;5090112;28;20042;-68
2022/07/01 08:43:34;;;;;;;13.60;11.10;;;20.10;99.90;;;;;;5103866;28;20052;-68
2022/07/01 08:46:03;;;;;;;13.02;11.18;;;20.30;99.90;;;;;;5084625;28;20036;-68
2022/07/01 08:48:30;;;;;;;12.43;11.23;;;20.30;99.90;;;;;;5070102;28;20493;-68
2022/07/01 08:50:56;;;;;;;12.77;11.00;;;20.40;99.90;;;;;;5083097;28;20040;-68
2022/07/01 08:53:21;;;;;;;11.73;10.55;;;20.60;99.90;;;;;;5099014;28;20639;-68
2022/07/01 08:58:31;;;;;;;11.57;8.52;;;20.80;99.90;;;;;;5125449;27;20425;-68
2022/07/01 09:01:21;;;;;;;11.15;9.73;;;21.20;99.90;;;;;;5090033;28;20036;-68
2022/07/01 09:03:48;;;;;;;9.02;8.23;;;21.30;99.90;;;;;;5068282;28;20050;-69
2022/07/01 09:06:19;;;;;;;9.60;8.60;;;21.60;99.90;;;;;;5054134;28;20044;-68
2022/07/01 09:08:46;;;;;;;8.70;7.85;;;21.70;99.90;;;;;;5083804;28;20054;-68
2022/07/01 09:11:32;;;;;;;8.45;7.30;;;21.80;99.90;;;;;;5085234;28;20051;-68
2022/07/01 09:14:11;;;;;;;8.82;8.00;;;21.80;99.90;;;;;;5070088;28;20071;-68
2022/07/01 09:16:45;;;;;;;10.25;8.05;;;21.50;99.90;;;;;;5070183;28;20497;-68
2022/07/01 09:19:13;;;;;;;10.05;9.15;;;21.60;99.90;;;;;;5077782;28;20047;-69
2022/07/01 09:21:38;;;;;;;9.38;8.45;;;21.80;99.90;;;;;;5069171;28;20040;-68
2022/07/01 09:24:22;;;;;;;10.63;8.95;;;22.00;99.90;;;;;;5086832;28;20052;-69
2022/07/01 09:27:13;;;;;;;8.80;7.50;;;22.00;99.90;;;;;;5070530;28;20044;-69
2022/07/01 09:30:09;;;;;;;8.93;8.02;;;22.00;99.90;;;;;;5070179;28;20120;-69
2022/07/01 09:32:34;;;;;;;9.05;7.57;;;22.00;99.90;;;;;;5070214;28;20056;-69
2022/07/01 09:35:00;;;;;;;9.70;7.38;;;22.00;99.90;;;;;;5087065;28;20051;-69
2022/07/01 09:37:25;;;;;;;8.73;7.72;;;21.90;99.90;;;;;;5073432;28;20056;-69
2022/07/01 09:39:53;;;;;;;8.65;7.10;;;21.90;99.90;;;;;;5090637;28;20044;-69
2022/07/01 09:42:21;;;;;;;9.98;8.20;;;22.00;99.90;;;;;;5072959;28;20040;-69
2022/07/01 09:44:58;;;;;;;8.73;7.90;;;21.70;99.90;;;;;;5089090;28;20072;-69
2022/07/01 09:47:24;;;;;;;8.30;7.30;;;21.70;99.90;;;;;;5088647;28;20097;-70
2022/07/01 09:49:51;;;;;;;9.60;7.30;;;21.70;99.90;;;;;;5078172;28;20028;-69
2022/07/01 09:52:17;;;;;;;7.28;6.53;;;21.60;99.90;;;;;;5083497;28;20443;-68
2022/07/01 09:54:47;;;;;;;6.50;5.97;;;21.60;99.90;;;;;;5090034;28;20047;-69
2022/07/01 09:57:13;;;;;;;7.13;5.75;;;21.70;99.90;;;;;;5084705;28;20367;-69
2022/07/01 09:59:38;;;;;;;6.45;5.22;;;21.80;99.90;;;;;;5076337;28;20051;-69
2022/07/01 10:02:06;;;;;;;8.63;6.10;;;22.00;99.90;;;;;;5083378;28;20040;-69
2022/07/01 10:04:34;;;;;;;6.18;5.60;;;21.90;99.90;;;;;;5090199;28;20064;-69
2022/07/01 10:07:36;;;;;;;8.90;6.55;;;21.80;99.90;;;;;;5068174;28;20144;-69
2022/07/01 10:10:07;;;;;;;9.18;6.10;;;21.80;99.90;;;;;;5069666;28;20052;-69
2022/07/01 10:12:38;;;;;;;8.23;6.38;;;22.00;99.90;;;;;;5075648;28;20401;-69
2022/07/01 10:15:06;;;;;;;7.22;5.93;;;22.10;99.90;;;;;;5088051;28;20034;-69
2022/07/01 10:17:36;;;;;;;8.57;6.53;;;22.20;99.90;;;;;;5098898;28;20062;-69
2022/07/01 10:20:15;;;;;;;8.38;6.65;;;22.40;99.90;;;;;;5081940;28;20047;-69
2022/07/01 10:22:41;;;;;;;7.13;6.00;;;22.60;99.90;;;;;;5071543;28;20378;-69
2022/07/01 10:25:30;;;;;;;8.68;6.72;;;22.90;98.80;;;;;;5063609;28;20043;-69
2022/07/01 10:28:13;;;;;;;7.70;6.90;;;23.00;99.20;;;;;;5110820;28;20710;-69
2022/07/01 10:31:09;;;;;;;11.15;7.00;;;22.70;98.90;;;;;;5089036;28;20036;-69
2022/07/01 10:33:46;;;;;;;11.07;6.60;;;22.50;98.90;;;;;;5087206;28;20089;-69
2022/07/01 10:36:17;;;;;;;7.28;5.75;;;22.40;99.10;;;;;;5105688;28;20071;-69
2022/07/01 10:39:07;;;;;;;7.32;5.00;;;22.40;99.60;;;;;;5075439;28;20048;-69
2022/07/01 10:41:55;;;;;;;7.00;4.00;;;22.40;99.40;;;;;;5090160;28;20135;-69
2022/07/01 10:44:25;;;;;;;4.95;3.95;;;22.50;99.20;;;;;;5089996;28;20044;-69
2022/07/01 10:46:56;;;;;;;8.85;4.05;;;22.70;99.90;;;;;;5092121;28;20129;-69
2022/07/01 10:49:38;;;;;;;6.05;4.07;;;23.00;99.00;;;;;;5087252;28;20044;-69
2022/07/01 10:52:09;;;;;;;6.30;3.38;;;23.00;96.30;;;;;;5072701;28;20049;-69
2022/07/01 10:57:18;;;;;;;5.50;3.00;;;22.90;97.30;;;;;;5108402;27;20355;-69
2022/07/01 10:59:47;;;;;;;5.55;4.15;;;23.00;96.10;;;;;;5084755;28;20036;-69
2022/07/01 11:02:15;;;;;;;5.03;3.70;;;23.00;97.30;;;;;;5080538;28;20054;-69
2022/07/01 11:04:41;;;;;;;5.65;3.50;;;22.70;96.80;;;;;;5057565;28;20045;-69
2022/07/01 11:07:07;;;;;;;5.57;3.80;;;22.70;97.20;;;;;;5087820;28;20028;-69
2022/07/01 11:09:33;;;;;;;5.05;3.28;;;22.80;97.40;;;;;;5074326;28;20594;-69
2022/07/01 11:12:00;;;;;;;7.10;4.20;;;22.70;97.60;;;;;;5098095;28;20123;-69
2022/07/01 11:14:27;;;;;;;5.07;3.47;;;22.70;96.90;;;;;;5116357;27;20036;-69
2022/07/01 11:16:53;;;;;;;5.57;3.50;;;22.90;97.00;;;;;;5079250;28;20028;-69
2022/07/01 11:19:19;;;;;;;5.28;3.72;;;23.10;97.20;;;;;;5092258;28;20047;-69
2022/07/01 11:21:51;;;;;;;4.82;3.10;;;23.20;95.80;;;;;;5076633;28;20032;-69
2022/07/01 11:24:18;;;;;;;6.25;3.15;;;23.30;96.10;;;;;;5121740;27;20487;-70
2022/07/01 11:26:44;;;;;;;4.00;2.70;;;23.30;96.00;;;;;;5088351;28;20043;-70
2022/07/01 11:29:14;;;;;;;6.18;3.38;;;23.50;95.90;;;;;;5117663;27;20044;-69
2022/07/01 11:31:40;;;;;;;7.22;3.20;;;;;;;;;;5086934;28;20547;-69
2022/07/01 11:34:06;;;;;;;6.05;2.60;;;23.50;93.40;;;;;;5076365;28;20131;-69
2022/07/01 11:39:22;;;;;;;4.25;2.35;;;23.30;94.60;;;;;;5089798;28;20048;-69
2022/07/01 11:41:52;;;;;;;4.35;2.03;;;23.40;95.40;;;;;;5082165;28;20047;-69
2022/07/01 11:44:36;;;;;;;4.78;2.13;;;23.50;96.00;;;;;;5087700;28;20096;-69
2022/07/01 11:47:11;;;;;;;3.90;2.35;;;23.80;95.30;;;;;;5083178;28;20330;-69
2022/07/01 11:49:45;;;;;;;3.75;2.08;;;23.60;94.10;;;;;;5082853;28;20054;-69
2022/07/01 11:52:10;;;;;;;3.78;1.90;;;23.50;93.80;;;;;;5084535;28;20059;-69
2022/07/01 11:54:41;;;;;;;3.95;1.52;;;23.10;94.50;;;;;;5084594;28;20106;-69
2022/07/01 11:57:11;;;;;;;6.85;2.00;;;22.50;95.20;;;;;;5085342;28;20105;-69
2022/07/01 11:59:40;;;;;;;3.88;2.13;;;22.30;96.10;;;;;;5117039;27;20043;-69
2022/07/01 12:02:06;;;;;;;3.75;1.60;;;21.80;96.60;;;;;;5086905;28;20376;-69
2022/07/01 12:04:32;;;;;;;2.20;1.35;;;21.70;97.30;;;;;;5089947;28;20042;-69
2022/07/01 12:06:59;;;;;;;6.25;1.58;;;21.50;98.10;;;;;;5100552;28;20123;-69
2022/07/01 12:09:25;;;;;;;3.95;1.55;;;21.30;98.60;;;;;;5085002;28;20484;-69
2022/07/01 12:11:52;;;;;;;3.25;1.48;;;21.40;99.30;;;;;;5083886;28;20056;-69
2022/07/01 12:14:35;;;;;;;3.22;1.30;;;21.70;98.70;;;;;;5120365;27;20123;-69
2022/07/01 12:17:06;;;;;;;5.10;1.60;;;21.90;98.80;;;;;;5087874;28;20101;-69
2022/07/01 12:19:39;;;;;;;;;;;22.20;98.30;;;;;;5086248;28;20044;-68
2022/07/01 12:22:09;;;;;;;1.35;0.90;;;22.40;96.10;;;;;;5089267;28;19951;-68
2022/07/01 12:24:35;;;;;;;2.20;0.90;;;22.70;94.50;;;;;;5118178;27;20040;-68
2022/07/01 12:27:02;;;;;;;1.95;0.70;;;22.80;93.20;;;;;;5116771;27;20031;-69
2022/07/01 12:29:53;;;;;;;2.45;0.90;;;22.90;94.50;;;;;;5083788;28;20054;-68
2022/07/01 12:32:23;;;;;;;2.55;0.80;;;23.00;91.60;;;;;;5072966;28;20051;-69
2022/07/01 12:34:55;;;;;;;2.78;0.73;;;23.10;93.90;;;;;;5054407;28;20432;-68
2022/07/01 12:37:26;;;;;;;2.08;0.70;;;23.10;94.20;;;;;;5105051;28;20054;-69
2022/07/01 12:39:55;;;;;;;3.83;0.80;;;23.00;93.80;;;;;;5071018;28;20041;-68
2022/07/01 12:42:29;;;;;;;3.47;0.80;;;23.00;93.10;;;;;;5105234;28;20043;-68
2022/07/01 12:44:57;;;;;;;3.00;1.25;;;22.90;92.40;;;;;;5090169;28;20044;-68
2022/07/01 12:47:33;;;;;;;3.17;1.02;;;22.80;92.70;;;;;;5091335;28;20052;-69
2022/07/01 12:50:20;;;;;;;3.80;1.00;;;22.60;92.70;;;;;;5071651;28;20050;-69
2022/07/01 12:53:00;;;;;;;1.80;0.65;;;22.70;92.30;;;;;;5106943;28;20055;-69
2022/07/01 12:55:26;;;;;;;4.45;0.80;;;22.80;91.70;;;;;;5090986;28;20127;-69
2022/07/01 12:57:54;;;;;;;1.63;0.80;;;23.10;94.50;;;;;;5091345;28;20444;-69
2022/07/01 13:00:21;;;;;;;2.33;0.70;;;23.20;93.10;;;;;;5090666;28;20397;-69
2022/07/01 13:02:50;;;;;;;3.38;1.00;;;23.30;93.50;;;;;;5090666;28;20052;-69
2022/07/01 13:05:15;;;;;;;2.47;0.77;;;23.30;91.80;;;;;;5104597;28;20131;-69